Time;durP1;ratioP1;P1;durP2;ratioP2;P2;SDS_P1;SDS_P2;PMS_P1;PMS_P2;Temp;Humidity;BMP_temperature;BMP_pressure;BME280_temperature;BME280_humidity;BME280_pressure;Samples;Min_cycle;Max_cycle;Signal;HPM_P1;HPM_P2
2023/03/13 00:01:32;;;;;;;5.65;2.38;;;;;;;8.34;100.00;99821.31;4992601;28;20057;-76
2023/03/13 00:03:57;;;;;;;3.97;2.17;;;;;;;8.37;100.00;99822.19;4991426;28;20085;-76
2023/03/13 00:06:25;;;;;;;9.00;2.33;;;;;;;8.33;100.00;99810.81;4991712;28;20048;-76
2023/03/13 00:08:51;;;;;;;4.95;1.98;;;;;;;8.37;100.00;99811.69;4991450;28;20030;-76
2023/03/13 00:11:16;;;;;;;6.40;1.65;;;;;;;8.35;100.00;99812.53;4991439;28;20096;-76
2023/03/13 00:13:43;;;;;;;5.05;1.20;;;;;;;8.31;100.00;99813.47;4990464;28;20050;-76
2023/03/13 00:16:11;;;;;;;16.90;2.50;;;;;;;8.32;100.00;99814.34;4995548;28;20034;-76
2023/03/13 00:18:37;;;;;;;5.43;1.65;;;;;;;8.33;100.00;99822.22;4995565;28;20034;-76
2023/03/13 00:21:05;;;;;;;7.80;1.42;;;;;;;8.32;100.00;99820.47;4995421;28;20044;-75
2023/03/13 00:23:32;;;;;;;9.07;1.45;;;;;;;8.36;100.00;99816.06;4995629;28;20392;-76
2023/03/13 00:26:14;;;;;;;4.50;1.00;;;;;;;8.35;100.00;99815.16;4995199;28;20041;-76
2023/03/13 00:28:41;;;;;;;6.97;3.00;;;;;;;8.37;100.00;99814.31;4993580;28;20027;-76
2023/03/13 00:31:15;;;;;;;5.22;1.58;;;;;;;8.36;100.00;99810.81;4978943;28;20491;-75
2023/03/13 00:33:46;;;;;;;4.93;1.60;;;;;;;8.38;100.00;99810.78;4995409;28;20038;-76
2023/03/13 00:36:20;;;;;;;7.38;1.40;;;;;;;8.46;100.00;99814.25;4971521;28;20050;-75
2023/03/13 00:38:46;;;;;;;4.53;1.23;;;;;;;8.46;100.00;99817.78;4995060;28;20062;-76
2023/03/13 00:41:16;;;;;;;2.22;1.20;;;;;;;8.49;100.00;99806.34;4993855;28;20073;-76
2023/03/13 00:43:43;;;;;;;4.35;1.50;;;;;;;8.49;100.00;99803.72;4995226;28;20432;-75
2023/03/13 00:46:10;;;;;;;7.25;1.00;;;;;;;8.52;100.00;99795.78;4993891;28;20046;-76
2023/03/13 00:48:36;;;;;;;8.15;1.65;;;;;;;8.52;100.00;99795.78;4995068;28;20034;-76
2023/03/13 00:51:02;;;;;;;6.85;1.52;;;;;;;8.52;100.00;99793.16;4995012;28;20412;-75
2023/03/13 00:53:28;;;;;;;5.90;1.08;;;;;;;8.54;100.00;99794.00;4995310;28;20070;-75
2023/03/13 00:55:58;;;;;;;16.63;2.17;;;;;;;8.56;100.00;99792.22;4993861;28;20030;-75
2023/03/13 00:58:26;;;;;;;8.52;1.90;;;;;;;8.60;100.00;99803.63;4992129;28;20042;-76
2023/03/13 01:00:51;;;;;;;4.95;0.88;;;;;;;8.60;100.00;99788.69;4995744;28;20042;-76
2023/03/13 01:03:18;;;;;;;5.82;1.23;;;;;;;8.63;100.00;99778.16;4993796;28;20038;-76
2023/03/13 01:05:43;;;;;;;10.77;1.88;;;;;;;8.64;99.67;99779.88;4994190;28;20046;-75
2023/03/13 01:08:09;;;;;;;10.32;1.90;;;;;;;8.67;99.68;99778.97;4994800;28;20034;-76
2023/03/13 01:10:34;;;;;;;7.47;1.30;;;;;;;8.65;98.95;99773.75;4994862;28;20500;-76
2023/03/13 01:13:00;;;;;;;8.88;1.75;;;;;;;8.62;99.14;99776.41;4995106;28;20042;-76
2023/03/13 01:15:26;;;;;;;7.95;1.35;;;;;;;8.64;98.98;99784.25;4993902;28;20050;-76
2023/03/13 01:17:52;;;;;;;5.32;1.10;;;;;;;8.65;98.59;99778.13;4993737;28;20128;-76
2023/03/13 01:20:17;;;;;;;8.38;1.73;;;;;;;8.61;98.57;99779.91;4993598;28;20041;-76
2023/03/13 01:22:42;;;;;;;11.05;1.40;;;;;;;8.60;98.97;99772.91;4995235;28;20499;-76
2023/03/13 01:25:08;;;;;;;7.18;2.28;;;;;;;8.64;98.36;99764.09;4986371;28;20110;-75
2023/03/13 01:27:33;;;;;;;3.60;1.00;;;;;;;8.59;98.60;99771.16;4994934;28;20042;-75
2023/03/13 01:29:59;;;;;;;10.57;1.98;;;;;;;8.55;98.38;99761.56;4993428;28;20038;-75
2023/03/13 01:32:25;;;;;;;4.68;1.02;;;;;;;8.50;98.68;99776.53;4993502;28;20034;-76
2023/03/13 01:34:50;;;;;;;3.72;1.48;;;;;;;8.50;98.95;99773.91;4993299;28;20030;-76
2023/03/13 01:37:16;;;;;;;7.18;1.27;;;;;;;8.48;98.84;99763.38;4993019;28;20038;-76
2023/03/13 01:39:41;;;;;;;9.45;1.23;;;;;;;8.46;98.61;99764.28;4992407;28;20103;-76
2023/03/13 01:42:07;;;;;;;5.60;1.52;;;;;;;8.44;99.04;99759.06;5001221;28;20601;-76
2023/03/13 01:44:52;;;;;;;12.07;2.42;;;;;;;8.46;99.17;99764.28;4994099;28;20042;-75
2023/03/13 01:47:18;;;;;;;5.38;1.63;;;;;;;8.45;98.26;99757.28;4990421;28;20512;-76
2023/03/13 01:50:07;;;;;;;6.57;1.20;;;;;;;8.43;98.53;99762.56;4989755;28;20558;-76
2023/03/13 01:53:09;;;;;;;6.40;1.60;;;;;;;8.45;98.15;99749.41;4985013;28;20107;-76
2023/03/13 01:55:34;;;;;;;7.45;3.45;;;;;;;8.42;97.78;99754.69;4992416;28;20027;-76
2023/03/13 01:58:00;;;;;;;7.55;1.67;;;;;;;8.49;97.72;99746.72;4993968;28;20041;-75
2023/03/13 02:00:31;;;;;;;11.07;1.58;;;;;;;8.47;97.86;99742.38;4979675;28;20026;-75
2023/03/13 02:03:00;;;;;;;4.82;0.95;;;;;;;8.49;97.24;99738.84;4993875;28;20062;-76
2023/03/13 02:05:27;;;;;;;9.25;1.45;;;;;;;8.57;96.60;99741.41;4992522;28;20412;-75
2023/03/13 02:07:58;;;;;;;8.10;1.70;;;;;;;8.58;95.56;99729.09;4980984;28;20041;-76
2023/03/13 02:10:25;;;;;;;11.43;2.20;;;;;;;8.60;95.66;99735.22;4992331;28;20034;-76
2023/03/13 02:12:51;;;;;;;8.18;1.45;;;;;;;8.57;95.37;99725.63;4992275;28;20034;-75
2023/03/13 02:15:22;;;;;;;5.90;1.25;;;;;;;8.59;94.86;99721.19;4992302;28;20041;-75
2023/03/13 02:17:49;;;;;;;32.30;4.53;;;;;;;8.56;94.57;99719.47;4992399;28;20117;-76
2023/03/13 02:20:17;;;;;;;13.48;3.42;;;;;;;8.52;94.75;99711.63;4991960;28;20046;-76
2023/03/13 02:22:53;;;;;;;10.55;3.80;;;;;;;8.55;95.44;99701.06;4991755;28;20030;-76
2023/03/13 02:25:24;;;;;;;11.27;4.22;;;;;;;8.54;94.53;99709.84;4972668;28;20030;-76
2023/03/13 02:28:00;;;;;;;18.20;3.63;;;;;;;8.55;94.34;99701.94;4992114;28;20066;-76
2023/03/13 02:30:27;;;;;;;17.63;4.25;;;;;;;8.53;94.04;99705.47;4992461;28;20034;-76
2023/03/13 02:32:52;;;;;;;16.85;4.88;;;;;;;8.49;94.72;99702.03;4991948;28;20048;-76
2023/03/13 02:35:20;;;;;;;11.52;3.50;;;;;;;8.53;93.93;99702.84;4993215;28;20043;-75
2023/03/13 02:37:50;;;;;;;15.32;4.53;;;;;;;8.55;94.07;99708.97;4991316;28;20042;-76
2023/03/13 02:40:26;;;;;;;9.13;3.05;;;;;;;8.58;93.61;99703.66;4985972;28;20030;-76
2023/03/13 02:42:54;;;;;;;14.30;3.67;;;;;;;8.63;93.96;99703.63;4991896;28;20129;-75
2023/03/13 02:45:20;;;;;;;10.90;3.35;;;;;;;8.67;93.58;99702.69;4991588;28;20117;-76
2023/03/13 02:47:46;;;;;;;14.00;3.53;;;;;;;8.68;93.18;99697.41;4975600;28;20045;-76
2023/03/13 02:50:12;;;;;;;12.32;3.80;;;;;;;8.64;93.13;99700.97;4991405;28;20409;-76
2023/03/13 02:52:45;;;;;;;14.60;3.60;;;;;;;8.65;93.42;99697.47;4991381;28;20026;-76
2023/03/13 02:55:21;;;;;;;8.95;3.03;;;;;;;8.60;93.77;99704.53;4984845;28;20030;-76
2023/03/13 02:57:47;;;;;;;9.65;3.60;;;;;;;8.56;93.75;99694.91;4991185;28;20074;-76
2023/03/13 03:00:15;;;;;;;10.15;3.30;;;;;;;8.59;94.13;99694.00;4994784;28;20065;-76
2023/03/13 03:02:41;;;;;;;12.73;3.63;;;;;;;8.62;94.03;99701.88;4975252;28;20041;-76
2023/03/13 03:05:07;;;;;;;12.15;3.40;;;;;;;8.67;93.65;99698.31;4992437;28;20026;-76
2023/03/13 03:07:32;;;;;;;13.95;3.88;;;;;;;8.65;93.59;99692.19;4991398;28;20242;-75
2023/03/13 03:09:57;;;;;;;13.77;3.88;;;;;;;8.71;93.42;99693.88;4990446;28;20054;-76
2023/03/13 03:12:23;;;;;;;11.68;3.30;;;;;;;8.71;93.76;99692.13;4990303;28;20442;-76
2023/03/13 03:14:48;;;;;;;13.30;3.40;;;;;;;8.77;93.42;99684.13;4990422;28;20405;-75
2023/03/13 03:17:15;;;;;;;11.02;3.00;;;;;;;8.78;93.47;99672.75;4991166;28;20041;-76
2023/03/13 03:19:40;;;;;;;18.15;3.50;;;;;;;8.78;93.39;99666.63;4992030;28;20054;-76
2023/03/13 03:22:07;;;;;;;19.55;3.22;;;;;;;8.76;93.65;99663.13;4991099;28;20034;-76
2023/03/13 03:24:33;;;;;;;13.15;3.65;;;;;;;8.76;93.97;99658.72;4990953;28;20460;-75
2023/03/13 03:26:58;;;;;;;14.85;3.75;;;;;;;8.75;93.95;99662.25;4992383;28;20038;-76
2023/03/13 03:29:30;;;;;;;13.30;3.33;;;;;;;8.78;93.94;99653.47;4988937;28;20030;-76
2023/03/13 03:31:57;;;;;;;12.02;3.58;;;;;;;8.77;94.05;99649.94;4990712;28;20488;-75
2023/03/13 03:34:22;;;;;;;10.23;3.40;;;;;;;8.75;94.85;99640.31;4991040;28;20034;-76
2023/03/13 03:36:49;;;;;;;12.38;3.70;;;;;;;8.73;95.00;99639.50;4990658;28;20033;-76
2023/03/13 03:39:14;;;;;;;8.98;2.95;;;;;;;8.73;94.69;99640.34;4992790;28;20038;-76
2023/03/13 03:41:39;;;;;;;8.30;3.38;;;;;;;8.75;94.91;99638.59;4991981;28;20034;-76
2023/03/13 03:44:05;;;;;;;10.10;2.92;;;;;;;8.75;94.58;99635.97;4990594;28;20038;-76
2023/03/13 03:46:46;;;;;;;11.40;3.25;;;;;;;8.78;94.32;99624.53;4990598;28;20409;-76
2023/03/13 03:49:11;;;;;;;10.88;3.53;;;;;;;8.78;94.34;99627.16;4991560;28;20030;-76
2023/03/13 03:51:37;;;;;;;14.18;2.88;;;;;;;8.77;95.17;99626.25;4990746;28;20061;-76
2023/03/13 03:54:02;;;;;;;12.45;3.80;;;;;;;8.75;94.55;99622.81;4990557;28;20065;-76
2023/03/13 03:56:30;;;;;;;11.65;2.88;;;;;;;8.70;95.07;99618.50;4988739;28;20031;-76
2023/03/13 03:58:58;;;;;;;17.42;3.83;;;;;;;8.67;94.93;99611.50;4991501;28;20501;-76
2023/03/13 04:01:34;;;;;;;14.35;3.63;;;;;;;8.70;95.18;99606.22;4990543;28;20038;-76
2023/03/13 04:04:00;;;;;;;15.20;3.50;;;;;;;8.64;95.41;99606.25;4990436;28;20448;-76
2023/03/13 04:06:25;;;;;;;10.23;2.58;;;;;;;8.64;95.35;99595.75;4974298;28;20084;-76
2023/03/13 04:08:51;;;;;;;11.65;2.53;;;;;;;8.65;95.10;99594.00;4971380;28;20061;-76
2023/03/13 04:11:20;;;;;;;10.50;2.67;;;;;;;8.63;95.65;99590.53;4990254;28;20042;-75
2023/03/13 04:13:49;;;;;;;11.10;2.42;;;;;;;8.61;95.68;99594.94;4987267;28;20616;-76
2023/03/13 04:16:15;;;;;;;12.88;3.55;;;;;;;8.55;96.02;99586.22;4988114;28;20121;-76
2023/03/13 04:18:41;;;;;;;15.45;3.13;;;;;;;8.50;96.23;99576.66;4990266;28;20031;-75
2023/03/13 04:21:07;;;;;;;12.68;3.00;;;;;;;8.48;96.65;99574.03;4986287;28;20088;-76
2023/03/13 04:23:43;;;;;;;9.82;2.83;;;;;;;8.49;96.29;99565.28;4990350;28;20037;-76
2023/03/13 04:26:09;;;;;;;11.20;2.75;;;;;;;8.49;96.76;99564.41;4990237;28;20038;-75
2023/03/13 04:28:35;;;;;;;15.32;3.42;;;;;;;8.48;96.85;99562.66;4990118;28;20030;-76
2023/03/13 04:31:03;;;;;;;15.48;3.22;;;;;;;8.40;97.21;99554.00;4990778;28;20057;-76
2023/03/13 04:33:47;;;;;;;8.35;2.55;;;;;;;8.44;96.97;99556.59;4988520;28;20045;-76
2023/03/13 04:36:18;;;;;;;11.57;2.60;;;;;;;8.47;96.83;99551.28;4990393;28;20041;-76
2023/03/13 04:39:10;;;;;;;13.43;3.03;;;;;;;8.45;97.19;99544.28;4975497;28;20121;-76
2023/03/13 04:41:54;;;;;;;21.17;3.55;;;;;;;8.45;97.06;99536.41;4990278;28;20026;-76
2023/03/13 04:44:30;;;;;;;12.15;3.45;;;;;;;8.50;96.78;99531.97;4970102;28;20133;-76
2023/03/13 04:47:24;;;;;;;7.15;2.85;;;;;;;8.50;96.65;99526.69;4955107;28;20054;-76
2023/03/13 04:50:27;;;;;;;13.52;3.72;;;;;;;8.51;96.67;99521.44;4950155;29;20074;-76
2023/03/13 04:53:11;;;;;;;21.70;4.72;;;;;;;8.53;97.11;99516.13;4934299;29;20040;-76
2023/03/13 04:55:59;;;;;;;16.88;4.43;;;;;;;8.56;96.51;99513.44;4982948;28;20049;-76
2023/03/13 04:58:39;;;;;;;21.58;6.10;;;;;;;8.56;96.47;99508.19;4989693;28;20429;-76
2023/03/13 05:01:14;;;;;;;9.00;3.35;;;;;;;8.60;96.61;99501.16;4988581;28;20038;-76
2023/03/13 05:03:52;;;;;;;10.77;3.10;;;;;;;8.61;96.40;99500.25;4992236;28;20033;-76
2023/03/13 05:06:38;;;;;;;12.20;2.45;;;;;;;8.59;96.25;99502.00;4992884;28;20048;-76
2023/03/13 05:09:15;;;;;;;15.35;3.22;;;;;;;8.53;96.12;99492.47;4993171;28;20492;-76
2023/03/13 05:12:08;;;;;;;;;;;;;;;8.51;97.19;99491.59;4992639;28;20038;-76
2023/03/13 05:14:58;;;;;;;13.52;3.38;;;;;;;8.49;96.92;99475.00;5001864;28;19914;-76
2023/03/13 05:17:32;;;;;;;12.60;3.25;;;;;;;8.51;97.26;99473.19;4993355;28;20092;-76
2023/03/13 05:20:36;;;;;;;12.70;3.28;;;;;;;8.49;97.17;99459.22;4933679;29;20103;-75
2023/03/13 05:23:20;;;;;;;7.22;3.15;;;;;;;8.48;97.84;99446.94;4934418;29;20427;-76
2023/03/13 05:25:59;;;;;;;17.60;4.85;;;;;;;8.52;98.34;99446.91;4973600;28;20101;-76
2023/03/13 05:28:50;;;;;;;8.25;3.22;;;;;;;8.61;97.48;99445.00;4990269;28;20030;-76
2023/03/13 05:31:18;;;;;;;8.13;2.70;;;;;;;8.68;97.57;99450.16;4994730;28;20073;-76
2023/03/13 05:34:18;;;;;;;15.98;2.60;;;;;;;8.80;96.66;99442.94;4953120;28;20548;-76
2023/03/13 05:37:00;;;;;;;14.70;2.90;;;;;;;8.87;96.72;99426.19;4988791;28;20042;-77
2023/03/13 05:39:35;;;;;;;11.35;2.97;;;;;;;8.88;97.19;99420.91;4992617;28;20026;-76
2023/03/13 05:42:13;;;;;;;9.85;2.67;;;;;;;8.96;95.98;99416.38;4993127;28;20034;-76
2023/03/13 05:45:01;;;;;;;10.73;1.85;;;;;;;9.05;95.93;99417.09;4991767;28;20058;-75
2023/03/13 05:47:45;;;;;;;10.25;1.80;;;;;;;9.06;94.83;99419.69;4993759;28;20104;-76
2023/03/13 05:50:32;;;;;;;11.98;1.98;;;;;;;9.18;94.91;99415.97;4989786;28;20043;-76
2023/03/13 05:53:24;;;;;;;9.20;1.67;;;;;;;9.17;94.73;99412.50;4989842;28;20046;-76
2023/03/13 05:56:09;;;;;;;7.57;1.75;;;;;;;9.21;94.22;99408.03;5000053;28;20034;-77
2023/03/13 05:58:48;;;;;;;5.35;1.40;;;;;;;9.27;93.99;99401.78;4999423;23;20073;-77
2023/03/13 06:01:37;;;;;;;10.00;2.03;;;;;;;9.34;93.42;99409.53;4991005;28;20108;-77
2023/03/13 06:04:18;;;;;;;13.10;3.80;;;;;;;9.36;93.49;99401.59;4983351;28;20128;-77
2023/03/13 06:06:45;;;;;;;11.73;2.05;;;;;;;9.38;93.71;99394.56;4984003;28;20037;-77
2023/03/13 06:09:11;;;;;;;13.93;2.30;;;;;;;9.42;93.58;99398.84;4979580;28;20120;-77
2023/03/13 06:11:36;;;;;;;10.43;2.20;;;;;;;9.47;93.28;99394.34;4980201;28;20572;-77
2023/03/13 06:14:03;;;;;;;7.28;1.67;;;;;;;9.54;93.08;99390.72;4985494;28;20373;-77
2023/03/13 06:16:34;;;;;;;9.95;1.67;;;;;;;9.61;92.86;99386.16;4982623;28;20117;-77
2023/03/13 06:19:18;;;;;;;11.35;3.03;;;;;;;9.60;92.63;99364.22;5001071;28;20678;-77
2023/03/13 06:21:43;;;;;;;6.15;1.30;;;;;;;9.65;92.72;99356.25;5002584;28;20042;-77
2023/03/13 06:24:09;;;;;;;9.93;1.90;;;;;;;9.74;92.42;99365.72;5004364;28;20121;-77
2023/03/13 06:26:34;;;;;;;9.02;1.80;;;;;;;9.76;92.19;99348.09;4992550;28;20042;-77
2023/03/13 06:28:59;;;;;;;13.10;2.67;;;;;;;9.80;92.55;99344.50;5002444;28;20783;-77
2023/03/13 06:31:25;;;;;;;11.45;2.25;;;;;;;9.90;92.25;99340.75;5004689;28;20488;-77
2023/03/13 06:33:54;;;;;;;14.40;2.40;;;;;;;9.96;91.16;99337.13;5001841;28;20061;-77
2023/03/13 06:36:21;;;;;;;11.77;2.17;;;;;;;9.97;91.78;99331.81;5000540;28;20033;-77
2023/03/13 06:38:46;;;;;;;8.73;1.73;;;;;;;10.03;91.32;99325.53;5001305;28;20038;-77
2023/03/13 06:41:12;;;;;;;11.93;2.15;;;;;;;10.08;91.23;99328.91;5001346;28;20109;-77
2023/03/13 06:43:39;;;;;;;9.73;1.90;;;;;;;10.08;91.16;99321.88;5000721;28;20110;-77
2023/03/13 06:46:05;;;;;;;12.68;2.22;;;;;;;10.16;91.18;99313.78;4986171;28;20037;-77
2023/03/13 06:48:31;;;;;;;14.23;2.22;;;;;;;10.33;90.58;99308.16;4993127;28;20410;-77
2023/03/13 06:50:56;;;;;;;10.82;1.77;;;;;;;10.40;89.48;99315.00;5002223;28;20034;-77
2023/03/13 06:53:22;;;;;;;9.88;2.58;;;;;;;10.49;88.28;99304.22;4999868;28;20081;-77
2023/03/13 06:55:50;;;;;;;12.70;2.50;;;;;;;10.50;88.18;99305.06;5001415;28;20034;-77
2023/03/13 06:58:17;;;;;;;11.15;3.05;;;;;;;10.56;88.61;99293.50;5000939;28;20069;-77
2023/03/13 07:00:43;;;;;;;10.98;1.95;;;;;;;10.65;88.38;99282.72;5004343;28;20070;-77
2023/03/13 07:03:09;;;;;;;10.52;2.08;;;;;;;10.68;88.74;99280.84;5002522;28;20120;-77
2023/03/13 07:05:35;;;;;;;17.20;3.50;;;;;;;10.76;88.07;99280.66;4972305;28;20055;-77
2023/03/13 07:08:01;;;;;;;11.35;2.10;;;;;;;10.74;87.57;99271.91;5000163;28;20106;-77
2023/03/13 07:10:27;;;;;;;10.02;2.47;;;;;;;10.72;88.67;99274.59;4984210;28;20591;-77
2023/03/13 07:12:53;;;;;;;14.50;2.03;;;;;;;10.74;89.35;99282.47;5003618;28;20026;-77
2023/03/13 07:15:18;;;;;;;9.68;2.30;;;;;;;10.74;90.64;99287.75;5001334;28;20704;-77
2023/03/13 07:17:43;;;;;;;12.48;3.03;;;;;;;10.71;92.82;99272.00;5003955;28;20045;-77
2023/03/13 07:20:09;;;;;;;10.70;1.80;;;;;;;10.69;93.93;99273.84;5001015;28;20042;-77
2023/03/13 07:22:36;;;;;;;11.10;2.00;;;;;;;10.72;94.76;99268.47;5003739;28;20041;-77
2023/03/13 07:25:03;;;;;;;10.02;1.80;;;;;;;10.67;95.61;99271.22;4983361;28;20025;-77
2023/03/13 07:27:29;;;;;;;12.90;2.05;;;;;;;10.62;96.42;99261.69;5000022;28;20037;-77
2023/03/13 07:29:54;;;;;;;12.85;2.33;;;;;;;10.64;97.02;99254.63;5000634;28;20519;-77
2023/03/13 07:32:19;;;;;;;12.57;1.85;;;;;;;10.59;98.01;99251.22;5004194;28;20392;-77
2023/03/13 07:34:45;;;;;;;13.93;1.98;;;;;;;10.59;99.26;99262.66;4985845;28;20524;-77
2023/03/13 07:37:11;;;;;;;12.57;2.20;;;;;;;10.50;100.00;99258.47;5000498;28;20508;-77
2023/03/13 07:39:36;;;;;;;11.00;1.40;;;;;;;10.50;100.00;99263.72;4982878;28;20022;-77
2023/03/13 07:42:02;;;;;;;6.70;1.38;;;;;;;10.50;100.00;99258.47;5003550;28;20397;-77
2023/03/13 07:44:27;;;;;;;8.18;1.77;;;;;;;10.51;100.00;99256.72;5000609;28;20038;-77
2023/03/13 07:46:52;;;;;;;8.63;1.75;;;;;;;10.56;100.00;99246.00;4982179;28;20049;-77
2023/03/13 07:49:18;;;;;;;6.38;1.48;;;;;;;10.55;100.00;99254.84;5000543;28;20038;-77
2023/03/13 07:51:46;;;;;;;7.78;1.73;;;;;;;10.56;100.00;99252.19;5002465;28;20350;-77
2023/03/13 07:54:12;;;;;;;7.40;1.60;;;;;;;10.54;100.00;99254.00;5002382;28;20181;-77
2023/03/13 07:56:37;;;;;;;8.40;1.40;;;;;;;10.45;100.00;99243.66;5002296;28;20464;-77
2023/03/13 07:59:02;;;;;;;4.95;1.90;;;;;;;10.42;100.00;99244.59;5000875;28;20154;-77
2023/03/13 08:01:28;;;;;;;9.40;2.03;;;;;;;10.33;100.00;99254.56;5002129;28;20046;-77
2023/03/13 08:03:54;;;;;;;8.05;2.17;;;;;;;10.30;100.00;99248.44;5001677;28;20109;-78
2023/03/13 08:06:24;;;;;;;7.25;2.00;;;;;;;10.39;100.00;99255.25;5001453;28;20042;-78
2023/03/13 08:08:51;;;;;;;8.07;2.00;;;;;;;10.40;100.00;99254.34;5003278;28;20092;-78
2023/03/13 08:11:23;;;;;;;6.50;1.40;;;;;;;10.34;100.00;99257.13;4999520;28;20571;-77
2023/03/13 08:13:49;;;;;;;9.55;1.75;;;;;;;10.24;100.00;99250.31;5000000;28;20042;-77
2023/03/13 08:16:19;;;;;;;8.57;1.50;;;;;;;10.22;100.00;99238.97;4997215;28;20037;-77
2023/03/13 08:18:47;;;;;;;6.18;1.30;;;;;;;10.21;100.00;99237.22;4982946;28;20038;-77
2023/03/13 08:21:15;;;;;;;8.40;1.63;;;;;;;10.10;100.00;99237.50;4985204;28;20034;-77
2023/03/13 08:23:41;;;;;;;5.55;1.27;;;;;;;10.07;100.00;99230.53;5001205;28;20070;-77
2023/03/13 08:26:10;;;;;;;7.15;1.52;;;;;;;10.09;100.00;99210.28;5001748;28;20514;-77
2023/03/13 08:28:36;;;;;;;6.38;1.65;;;;;;;10.20;100.00;99211.78;4992429;28;20045;-77
2023/03/13 08:31:17;;;;;;;4.57;1.02;;;;;;;10.24;100.00;99208.13;5000301;28;20037;-77
2023/03/13 08:33:44;;;;;;;6.70;1.20;;;;;;;10.23;100.00;99212.53;4995615;28;20400;-77
2023/03/13 08:36:20;;;;;;;4.25;1.20;;;;;;;10.34;100.00;99209.66;5004692;28;20052;-77
2023/03/13 08:38:46;;;;;;;6.80;1.13;;;;;;;10.41;100.00;99213.88;4988083;28;20049;-77
2023/03/13 08:41:17;;;;;;;6.28;0.93;;;;;;;10.45;100.00;99212.00;5004514;28;20137;-77
2023/03/13 08:43:43;;;;;;;5.40;1.15;;;;;;;10.42;100.00;99218.22;5006898;28;20096;-77
2023/03/13 08:46:09;;;;;;;5.30;1.15;;;;;;;10.43;100.00;99222.63;5002781;28;20065;-77
2023/03/13 08:48:34;;;;;;;4.45;1.00;;;;;;;10.45;100.00;99220.81;4997733;28;20536;-77
2023/03/13 08:51:12;;;;;;;9.52;1.05;;;;;;;10.53;100.00;99210.91;4986070;28;20030;-77
2023/03/13 08:53:39;;;;;;;10.48;1.40;;;;;;;10.63;100.00;99203.59;5002497;28;20046;-77
2023/03/13 08:56:06;;;;;;;9.98;2.05;;;;;;;10.76;100.00;99198.84;5003402;28;20050;-77
2023/03/13 08:58:31;;;;;;;6.20;1.02;;;;;;;10.80;100.00;99205.78;5003441;28;20034;-77
2023/03/13 09:01:05;;;;;;;3.50;0.90;;;;;;;10.89;100.00;99205.50;4985148;28;20029;-77
2023/03/13 09:03:31;;;;;;;5.03;1.20;;;;;;;10.90;100.00;99199.34;4977222;28;20034;-77
2023/03/13 09:05:57;;;;;;;8.85;1.20;;;;;;;11.05;100.00;99198.00;5003255;28;20026;-77
2023/03/13 09:08:23;;;;;;;6.40;1.23;;;;;;;11.12;100.00;99196.91;4984150;28;20120;-77
2023/03/13 09:11:00;;;;;;;4.97;0.93;;;;;;;11.25;100.00;99199.22;5002946;28;20121;-77
2023/03/13 09:13:27;;;;;;;5.07;0.98;;;;;;;11.33;100.00;99198.03;5005153;28;20034;-77
2023/03/13 09:15:57;;;;;;;2.38;0.90;;;;;;;11.38;100.00;99175.00;4987384;28;20445;-77
2023/03/13 09:18:23;;;;;;;4.88;0.75;;;;;;;11.53;100.00;99178.94;5005628;28;20136;-77
2023/03/13 09:20:48;;;;;;;3.53;0.82;;;;;;;11.65;100.00;99182.09;5003659;28;20048;-77
2023/03/13 09:23:13;;;;;;;5.88;0.75;;;;;;;11.66;100.00;99200.56;5005811;28;20113;-77
2023/03/13 09:25:39;;;;;;;2.90;0.65;;;;;;;11.59;100.00;99191.09;5006572;28;20114;-77
2023/03/13 09:28:04;;;;;;;4.10;1.27;;;;;;;11.63;100.00;99190.97;5002630;28;20116;-78
2023/03/13 09:30:29;;;;;;;1.63;0.40;;;;;;;11.63;100.00;99169.81;4988699;28;20131;-77
2023/03/13 09:32:55;;;;;;;2.45;0.40;;;;;;;11.49;100.00;99174.66;5000547;28;20038;-77
2023/03/13 09:35:20;;;;;;;1.42;0.47;;;;;;;11.39;100.00;99176.72;5002723;28;20034;-77
2023/03/13 09:37:45;;;;;;;3.80;0.50;;;;;;;11.22;100.00;99183.47;5005670;28;20125;-77
2023/03/13 09:40:17;;;;;;;8.02;0.90;;;;;;;11.14;100.00;99176.63;5005287;28;20038;-76
2023/03/13 09:42:55;;;;;;;2.65;0.60;;;;;;;11.13;100.00;99171.38;4999427;28;20035;-76
2023/03/13 09:45:30;;;;;;;4.32;0.98;;;;;;;11.12;100.00;99180.22;5001108;28;20077;-77
2023/03/13 09:48:00;;;;;;;4.40;0.82;;;;;;;11.07;100.00;99179.50;5005109;28;20041;-76
2023/03/13 09:50:38;;;;;;;3.25;0.57;;;;;;;11.07;100.00;99180.34;4968652;28;20050;-76
2023/03/13 09:53:27;;;;;;;3.28;1.15;;;;;;;11.14;100.00;99186.31;4999180;28;20034;-77
2023/03/13 09:55:53;;;;;;;2.85;0.40;;;;;;;11.27;100.00;99181.53;4980997;28;20129;-77
2023/03/13 09:58:27;;;;;;;1.92;0.52;;;;;;;11.38;100.00;99182.94;4999825;28;20044;-77
2023/03/13 10:00:53;;;;;;;5.90;1.60;;;;;;;11.39;100.00;99179.34;5000569;28;20495;-77
2023/03/13 10:03:30;;;;;;;4.57;0.70;;;;;;;11.46;100.00;99181.84;5002651;28;20042;-77
2023/03/13 10:06:03;;;;;;;3.67;0.60;;;;;;;11.54;100.00;99174.53;4999492;28;20038;-77
2023/03/13 10:08:33;;;;;;;5.72;1.00;;;;;;;11.55;100.00;99170.97;5003895;28;20048;-77
2023/03/13 10:11:30;;;;;;;2.25;0.80;;;;;;;11.57;100.00;99175.28;5000184;28;20165;-77
2023/03/13 10:14:00;;;;;;;5.43;1.00;;;;;;;11.64;100.00;99170.69;4998970;28;20037;-77
2023/03/13 10:16:46;;;;;;;4.13;0.80;;;;;;;11.80;100.00;99163.13;4997092;28;20042;-77
2023/03/13 10:19:16;;;;;;;2.97;1.15;;;;;;;11.97;100.00;99178.44;4989657;28;20484;-77
2023/03/13 10:21:45;;;;;;;4.25;1.20;;;;;;;12.12;100.00;99183.22;4984577;28;20038;-77
2023/03/13 10:24:17;;;;;;;3.63;0.77;;;;;;;12.26;100.00;99183.63;4985108;28;20045;-77
2023/03/13 10:26:43;;;;;;;1.70;0.40;;;;;;;12.29;100.00;99177.34;4987501;28;20452;-77
2023/03/13 10:29:26;;;;;;;1.23;0.40;;;;;;;12.44;100.00;99194.47;5001947;28;20126;-77
2023/03/13 10:31:56;;;;;;;5.55;0.52;;;;;;;12.55;100.00;99192.31;5000786;28;20034;-77
2023/03/13 10:34:23;;;;;;;5.32;0.95;;;;;;;12.66;100.00;99184.84;5001009;28;20037;-77
2023/03/13 10:36:55;;;;;;;5.88;1.30;;;;;;;12.81;100.00;99183.44;4998600;28;20050;-77
2023/03/13 10:39:22;;;;;;;3.35;0.60;;;;;;;12.89;100.00;99180.47;5003192;28;20520;-77
2023/03/13 10:41:49;;;;;;;4.13;0.60;;;;;;;13.01;100.00;99181.81;5003350;28;20034;-77
2023/03/13 10:44:20;;;;;;;2.20;0.82;;;;;;;13.10;100.00;99184.13;5003520;28;20038;-77
2023/03/13 10:46:47;;;;;;;2.75;0.55;;;;;;;13.02;100.00;99181.78;4999954;28;20065;-77
2023/03/13 10:49:17;;;;;;;2.97;0.80;;;;;;;13.01;100.00;99182.69;5000137;28;20065;-77
2023/03/13 10:51:50;;;;;;;2.63;0.60;;;;;;;13.04;100.00;99182.56;4992584;28;20786;-77
2023/03/13 10:54:24;;;;;;;3.13;0.93;;;;;;;13.05;100.00;99171.06;5003824;28;20034;-77
2023/03/13 10:56:51;;;;;;;3.13;0.93;;;;;;;13.04;100.00;99184.34;4984846;28;20042;-77
2023/03/13 10:59:21;;;;;;;5.88;1.95;;;;;;;13.00;100.00;99167.72;5004534;28;20085;-79
2023/03/13 11:01:47;;;;;;;2.38;0.60;;;;;;;13.00;100.00;99167.72;4998211;28;20484;-77
2023/03/13 11:04:33;;;;;;;1.92;0.60;;;;;;;13.09;100.00;99169.16;5000844;28;20036;-78
2023/03/13 11:07:05;;;;;;;3.10;0.95;;;;;;;13.16;100.00;99174.16;5001699;28;20145;-77
2023/03/13 11:09:32;;;;;;;1.08;0.43;;;;;;;13.11;100.00;99176.13;4987140;28;20080;-77
2023/03/13 11:12:04;;;;;;;1.95;0.80;;;;;;;13.16;100.00;99154.75;4998184;28;20040;-77
2023/03/13 11:14:30;;;;;;;2.33;0.68;;;;;;;13.24;100.00;99154.47;4998429;28;20072;-76
2023/03/13 11:17:20;;;;;;;1.55;0.57;;;;;;;13.35;100.00;99146.97;4981258;28;20018;-78
2023/03/13 11:19:57;;;;;;;1.70;0.60;;;;;;;13.43;100.00;99134.28;5001999;28;20085;-78
2023/03/13 11:22:29;;;;;;;1.60;0.45;;;;;;;13.40;100.00;99126.47;5003365;28;20030;-77
2023/03/13 11:25:21;;;;;;;2.38;0.80;;;;;;;13.49;100.00;99112.84;5002333;28;20409;-77
2023/03/13 11:27:57;;;;;;;;;;;;;;;13.61;99.12;99105.31;4984657;28;20042;-77
2023/03/13 11:30:37;;;;;;;2.15;0.60;;;;;;;13.65;98.27;99112.19;4999840;28;20425;-77
2023/03/13 11:33:51;;;;;;;1.67;0.57;;;;;;;13.70;97.77;99094.31;4999840;28;20042;-78
2023/03/13 11:36:24;;;;;;;1.50;0.50;;;;;;;13.79;96.88;99092.16;4976100;28;20453;-78
2023/03/13 11:39:37;;;;;;;5.07;0.57;;;;;;;13.98;96.07;99089.56;4985319;28;20066;-77
2023/03/13 11:42:24;;;;;;;1.33;0.55;;;;;;;14.02;94.25;99090.31;4998736;28;20087;-78
2023/03/13 11:45:02;;;;;;;1.83;0.32;;;;;;;14.19;95.35;99090.41;4997127;28;20030;-77
2023/03/13 11:48:05;;;;;;;0.70;0.40;;;;;;;14.35;94.00;99082.63;4999255;28;20054;-77
2023/03/13 11:50:51;;;;;;;1.48;0.50;;;;;;;14.58;92.49;99073.69;4982370;28;20507;-78